createdAt,value
2019-03-29T00:01:28.619Z,6.12
2019-03-29T00:04:00.968Z,6.03
2019-03-29T00:06:32.713Z,5.65
2019-03-29T00:09:05.332Z,5.75
2019-03-29T00:11:48.389Z,6.33
2019-03-29T00:14:23.292Z,6.25
2019-03-29T00:16:53.468Z,6.05
2019-03-29T00:19:24.124Z,6.28
2019-03-29T00:21:54.894Z,6.28
2019-03-29T00:24:25.606Z,5.67
2019-03-29T00:26:56.393Z,5.83
2019-03-29T00:29:27.098Z,5.70
2019-03-29T00:31:57.804Z,7.62
2019-03-29T00:34:28.494Z,6.15
2019-03-29T00:37:03.080Z,5.95
2019-03-29T00:39:33.927Z,6.62
2019-03-29T00:42:04.869Z,7.17
2019-03-29T00:44:35.522Z,6.70
2019-03-29T00:47:06.289Z,7.83
2019-03-29T00:49:37.016Z,7.47
2019-03-29T00:52:07.754Z,7.72
2019-03-29T00:54:38.643Z,7.65
2019-03-29T00:57:09.301Z,7.53
2019-03-29T00:59:40.199Z,7.40
2019-03-29T01:02:11.494Z,7.00
2019-03-29T01:04:43.286Z,6.67
2019-03-29T01:07:13.977Z,7.47
2019-03-29T01:09:45.707Z,6.42
2019-03-29T01:12:16.423Z,7.25
2019-03-29T01:14:51.657Z,7.10
2019-03-29T01:17:22.434Z,7.47
2019-03-29T01:19:53.164Z,8.80
2019-03-29T01:22:23.896Z,8.20
2019-03-29T01:24:55.316Z,9.00
2019-03-29T01:27:26.128Z,8.83
2019-03-29T01:29:56.956Z,8.80
2019-03-29T01:32:28.105Z,10.05
2019-03-29T01:34:58.869Z,8.28
2019-03-29T01:37:30.640Z,10.20
2019-03-29T01:40:01.509Z,9.63
2019-03-29T01:42:32.302Z,10.28
2019-03-29T01:45:03.047Z,11.18
2019-03-29T01:47:33.902Z,10.60
2019-03-29T01:50:04.880Z,9.35
2019-03-29T01:52:35.620Z,10.03
2019-03-29T01:55:07.061Z,11.30
2019-03-29T01:57:37.785Z,10.15
2019-03-29T02:00:09.569Z,10.28
2019-03-29T02:02:40.357Z,11.12
2019-03-29T02:05:11.142Z,12.28
2019-03-29T02:07:42.775Z,11.48
2019-03-29T02:10:13.637Z,12.15
2019-03-29T02:12:44.575Z,10.43
2019-03-29T02:15:15.342Z,11.55
2019-03-29T02:17:46.041Z,12.03
2019-03-29T02:20:16.861Z,10.32
2019-03-29T02:22:50.059Z,11.48
2019-03-29T02:25:20.784Z,11.88
2019-03-29T02:27:52.276Z,12.10
2019-03-29T02:30:23.778Z,10.72
2019-03-29T02:32:54.470Z,11.25
2019-03-29T02:35:25.251Z,12.00
2019-03-29T02:37:56.645Z,11.25
2019-03-29T02:40:27.685Z,12.85
2019-03-29T02:42:58.436Z,11.45
2019-03-29T02:45:30.490Z,11.35
2019-03-29T02:48:01.500Z,10.60
2019-03-29T02:50:32.349Z,11.75
2019-03-29T02:53:03.032Z,12.00
2019-03-29T02:55:33.802Z,10.32
2019-03-29T02:58:04.518Z,12.05
2019-03-29T03:00:35.249Z,11.03
2019-03-29T03:03:06.036Z,15.15
2019-03-29T03:05:36.738Z,15.68
2019-03-29T03:08:07.451Z,15.48
2019-03-29T03:10:38.187Z,13.28
2019-03-29T03:13:08.970Z,15.85
2019-03-29T03:15:39.852Z,15.45
2019-03-29T03:18:10.562Z,15.25
2019-03-29T03:20:41.334Z,15.68
2019-03-29T03:23:12.196Z,16.32
2019-03-29T03:25:42.913Z,15.23
2019-03-29T03:28:13.657Z,15.78
2019-03-29T03:30:44.396Z,16.70
2019-03-29T03:33:15.173Z,17.45
2019-03-29T03:35:45.898Z,18.02
2019-03-29T03:38:16.764Z,19.52
2019-03-29T03:40:47.501Z,19.48
2019-03-29T03:43:18.174Z,16.05
2019-03-29T03:45:48.812Z,16.20
2019-03-29T03:48:19.516Z,18.77
2019-03-29T03:50:50.710Z,16.30
2019-03-29T03:53:21.418Z,17.07
2019-03-29T03:55:54.789Z,19.27
2019-03-29T03:58:28.077Z,17.55
2019-03-29T04:01:01.245Z,18.40
2019-03-29T04:03:31.983Z,19.92
2019-03-29T04:06:02.835Z,19.23
2019-03-29T04:08:33.675Z,19.70
2019-03-29T04:11:04.402Z,22.27
2019-03-29T04:13:35.170Z,20.55
2019-03-29T04:16:05.851Z,22.30
2019-03-29T04:18:36.573Z,20.68
2019-03-29T04:21:08.392Z,20.85
2019-03-29T04:23:39.192Z,21.00
2019-03-29T04:26:09.946Z,20.15
2019-03-29T04:28:42.367Z,22.60
2019-03-29T04:31:13.034Z,20.57
2019-03-29T04:33:50.367Z,21.57
2019-03-29T04:36:23.128Z,20.27
2019-03-29T04:38:55.515Z,22.95
2019-03-29T04:41:28.753Z,22.70
2019-03-29T04:43:58.635Z,21.62
2019-03-29T04:46:29.379Z,22.32
2019-03-29T04:49:00.225Z,22.48
2019-03-29T04:51:31.039Z,21.60
2019-03-29T04:54:03.889Z,20.70
2019-03-29T04:56:34.592Z,22.20
2019-03-29T04:59:05.378Z,21.97
2019-03-29T05:01:36.181Z,22.52
2019-03-29T05:04:06.935Z,21.33
2019-03-29T05:06:39.467Z,24.57
2019-03-29T05:09:11.276Z,22.17
2019-03-29T05:11:42.033Z,21.10
2019-03-29T05:14:12.812Z,21.65
2019-03-29T05:16:43.549Z,22.22
2019-03-29T05:19:16.351Z,22.75
2019-03-29T05:21:47.061Z,21.33
2019-03-29T05:24:17.819Z,21.48
2019-03-29T05:26:48.551Z,18.90
2019-03-29T05:29:19.280Z,20.80
2019-03-29T05:31:53.674Z,18.77
2019-03-29T05:34:24.234Z,20.02
2019-03-29T05:36:58.204Z,21.55
2019-03-29T05:39:27.338Z,20.17
2019-03-29T05:41:58.092Z,19.15
2019-03-29T05:44:28.894Z,23.67
2019-03-29T05:46:59.763Z,20.45
2019-03-29T05:49:30.523Z,21.20
2019-03-29T05:52:01.403Z,20.97
2019-03-29T05:54:32.983Z,20.80
2019-03-29T05:57:03.773Z,21.35
2019-03-29T05:59:34.613Z,20.85
2019-03-29T06:02:05.407Z,18.75
2019-03-29T06:04:36.199Z,20.90
2019-03-29T06:07:06.995Z,20.68
2019-03-29T06:09:37.747Z,21.68
2019-03-29T06:12:08.477Z,19.12
2019-03-29T06:14:39.239Z,19.90
2019-03-29T06:17:09.941Z,22.05
2019-03-29T06:19:40.806Z,20.02
2019-03-29T06:22:13.929Z,18.80
2019-03-29T06:24:44.654Z,20.23
2019-03-29T06:27:15.336Z,18.98
2019-03-29T06:29:46.221Z,18.92
2019-03-29T06:32:16.906Z,19.45
2019-03-29T06:34:47.679Z,18.73
2019-03-29T06:37:21.570Z,17.92
2019-03-29T06:39:54.593Z,17.92
2019-03-29T06:42:25.995Z,18.23
2019-03-29T06:44:56.867Z,18.07
2019-03-29T06:47:28.194Z,18.90
2019-03-29T06:49:59.971Z,16.82
2019-03-29T06:52:33.690Z,17.52
2019-03-29T06:55:04.675Z,16.77
2019-03-29T06:57:35.367Z,17.87
2019-03-29T07:00:06.627Z,16.12
2019-03-29T07:02:37.808Z,17.30
2019-03-29T07:05:08.661Z,15.35
2019-03-29T07:07:39.345Z,16.07
2019-03-29T07:10:11.168Z,14.58
2019-03-29T07:12:42.087Z,14.75
2019-03-29T07:15:12.910Z,15.95
2019-03-29T07:17:43.556Z,15.15
2019-03-29T07:20:14.299Z,15.58
2019-03-29T07:22:47.598Z,13.65
2019-03-29T07:25:18.431Z,13.83
2019-03-29T07:27:52.375Z,12.90
2019-03-29T07:30:23.166Z,13.60
2019-03-29T07:32:53.897Z,13.83
2019-03-29T07:35:24.666Z,13.13
2019-03-29T07:37:55.421Z,14.60
2019-03-29T07:40:26.256Z,12.73
2019-03-29T07:42:57.143Z,14.20
2019-03-29T07:45:28.047Z,13.03
2019-03-29T07:47:58.863Z,13.18
2019-03-29T07:50:29.775Z,13.48
2019-03-29T07:53:00.730Z,12.85
2019-03-29T07:55:31.453Z,12.75
2019-03-29T07:58:02.309Z,13.22
2019-03-29T08:00:33.083Z,11.93
2019-03-29T08:03:03.712Z,13.80
2019-03-29T08:05:35.449Z,13.70
2019-03-29T08:08:06.398Z,13.62
2019-03-29T08:10:37.627Z,12.05
2019-03-29T08:13:08.418Z,11.90
2019-03-29T08:15:39.125Z,11.38
2019-03-29T08:18:09.854Z,12.50
2019-03-29T08:20:44.141Z,12.00
2019-03-29T08:23:12.990Z,12.93
2019-03-29T08:25:46.078Z,11.70
2019-03-29T08:28:16.814Z,12.70
2019-03-29T08:30:47.524Z,12.15
2019-03-29T08:33:18.228Z,11.80
2019-03-29T08:35:48.998Z,11.63
2019-03-29T08:38:19.726Z,11.75
2019-03-29T08:40:50.382Z,10.20
2019-03-29T08:43:21.072Z,11.53
2019-03-29T08:45:51.834Z,10.55
2019-03-29T08:48:22.551Z,9.33
2019-03-29T08:50:53.330Z,10.43
2019-03-29T08:53:27.320Z,8.30
2019-03-29T08:55:56.392Z,8.63
2019-03-29T08:58:27.090Z,8.95
2019-03-29T09:00:57.772Z,9.88
2019-03-29T09:03:28.546Z,9.28
2019-03-29T09:05:59.544Z,11.33
2019-03-29T09:08:31.024Z,10.10
2019-03-29T09:11:03.435Z,7.03
2019-03-29T09:13:34.526Z,7.95
2019-03-29T09:16:05.267Z,9.70
2019-03-29T09:18:36.022Z,10.48
2019-03-29T09:21:06.692Z,7.15
2019-03-29T09:23:37.496Z,4.37
2019-03-29T09:26:09.396Z,5.70
2019-03-29T09:28:40.172Z,5.37
2019-03-29T09:31:12.089Z,5.92
2019-03-29T09:33:42.777Z,6.67
2019-03-29T09:36:14.471Z,4.42
2019-03-29T09:38:45.364Z,6.12
2019-03-29T09:41:16.145Z,6.92
2019-03-29T09:43:46.884Z,7.45
2019-03-29T09:46:17.553Z,6.35
2019-03-29T09:48:48.332Z,8.33
2019-03-29T09:51:19.032Z,10.40
2019-03-29T09:53:49.814Z,9.70
2019-03-29T09:56:20.465Z,8.18
2019-03-29T09:58:51.189Z,8.28
2019-03-29T10:01:22.042Z,8.55
2019-03-29T10:03:53.037Z,8.75
2019-03-29T10:06:23.711Z,8.30
2019-03-29T10:08:55.486Z,9.13
2019-03-29T10:11:26.275Z,8.05
2019-03-29T10:13:58.774Z,7.87
2019-03-29T10:16:29.433Z,8.25
2019-03-29T10:19:00.161Z,9.53
2019-03-29T10:21:33.958Z,10.23
2019-03-29T10:24:03.261Z,8.65
2019-03-29T10:26:33.988Z,7.90
2019-03-29T10:29:04.690Z,8.33
2019-03-29T10:31:35.379Z,8.10
2019-03-29T10:34:06.114Z,8.15
2019-03-29T10:36:36.820Z,8.85
2019-03-29T10:39:12.470Z,8.68
2019-03-29T10:41:43.201Z,7.78
2019-03-29T10:44:13.962Z,8.35
2019-03-29T10:46:44.621Z,7.53
2019-03-29T10:49:15.355Z,7.08
2019-03-29T10:51:46.270Z,5.87
2019-03-29T10:54:17.052Z,5.30
2019-03-29T10:56:49.407Z,5.12
2019-03-29T10:59:27.367Z,5.40
2019-03-29T11:01:52.646Z,5.35
2019-03-29T11:04:23.419Z,5.55
2019-03-29T11:06:54.101Z,5.45
2019-03-29T11:09:24.809Z,5.37
2019-03-29T11:11:55.473Z,5.03
2019-03-29T11:14:26.182Z,5.90
2019-03-29T11:16:56.852Z,4.28
2019-03-29T11:19:27.661Z,5.33
2019-03-29T11:21:59.125Z,5.75
2019-03-29T11:24:29.910Z,6.33
2019-03-29T11:27:00.563Z,5.12
2019-03-29T11:29:32.561Z,4.87
2019-03-29T11:32:03.395Z,5.65
2019-03-29T11:34:34.223Z,5.60
2019-03-29T11:37:04.903Z,5.28
2019-03-29T11:39:35.892Z,4.42
2019-03-29T11:42:06.702Z,4.33
2019-03-29T11:44:37.448Z,3.10
2019-03-29T11:47:08.123Z,2.92
2019-03-29T11:49:38.873Z,2.40
2019-03-29T11:52:10.655Z,3.72
2019-03-29T11:54:41.434Z,3.90
2019-03-29T11:57:12.236Z,3.75
2019-03-29T11:59:42.987Z,4.53
2019-03-29T12:02:14.158Z,3.37
2019-03-29T12:04:44.865Z,5.17
2019-03-29T12:07:15.643Z,4.65
2019-03-29T12:09:47.532Z,5.97
2019-03-29T12:12:18.926Z,4.12
2019-03-29T12:14:49.680Z,4.58
2019-03-29T12:17:21.447Z,5.28
2019-03-29T12:19:55.384Z,5.62
2019-03-29T12:22:26.087Z,5.22
2019-03-29T12:24:56.936Z,4.70
2019-03-29T12:27:27.658Z,5.33
2019-03-29T12:29:58.398Z,5.28
2019-03-29T12:32:29.151Z,5.28
2019-03-29T12:34:59.922Z,4.90
2019-03-29T12:37:30.637Z,6.62
2019-03-29T12:40:01.400Z,6.67
2019-03-29T12:42:32.321Z,6.42
2019-03-29T12:45:03.007Z,5.53
2019-03-29T12:47:34.105Z,6.15
2019-03-29T12:50:05.223Z,6.35
2019-03-29T12:52:36.110Z,5.53
2019-03-29T12:55:14.990Z,5.72
2019-03-29T12:57:45.844Z,6.97
2019-03-29T13:00:16.915Z,5.97
2019-03-29T13:02:51.716Z,6.97
2019-03-29T13:05:24.345Z,6.08
2019-03-29T13:07:55.736Z,5.78
2019-03-29T13:10:26.856Z,5.05
2019-03-29T13:13:00.546Z,5.15
2019-03-29T13:15:30.630Z,5.20
2019-03-29T13:18:01.331Z,4.78
2019-03-29T13:20:32.054Z,6.33
2019-03-29T13:23:02.828Z,5.85
2019-03-29T13:25:33.688Z,4.58
2019-03-29T13:28:07.781Z,5.03
2019-03-29T13:30:38.621Z,3.77
2019-03-29T13:33:09.453Z,4.95
2019-03-29T13:35:40.196Z,4.45
2019-03-29T13:38:10.918Z,4.05
2019-03-29T13:40:41.650Z,3.55
2019-03-29T13:43:13.550Z,3.95
2019-03-29T13:45:44.702Z,3.60
2019-03-29T13:48:15.474Z,3.52
2019-03-29T13:50:46.190Z,3.80
2019-03-29T13:53:16.979Z,4.12
2019-03-29T13:55:47.754Z,4.55
2019-03-29T13:58:19.204Z,4.05
2019-03-29T14:00:50.305Z,4.22
2019-03-29T14:03:24.582Z,4.45
2019-03-29T14:05:55.963Z,3.33
2019-03-29T14:08:30.205Z,5.35
2019-03-29T14:11:04.097Z,4.83
2019-03-29T14:13:35.398Z,4.90
2019-03-29T14:16:06.209Z,4.90
2019-03-29T14:18:37.514Z,4.33
2019-03-29T14:21:08.202Z,5.15
2019-03-29T14:23:39.332Z,4.22
2019-03-29T14:26:10.146Z,5.03
2019-03-29T14:28:41.337Z,4.83
2019-03-29T14:31:12.079Z,4.80
2019-03-29T14:33:42.861Z,5.75
2019-03-29T14:36:13.682Z,7.30
2019-03-29T14:38:44.358Z,5.33
2019-03-29T14:41:15.034Z,5.20
2019-03-29T14:43:45.858Z,5.17
2019-03-29T14:46:16.562Z,6.45
2019-03-29T14:48:47.451Z,5.12
2019-03-29T14:51:18.235Z,5.08
2019-03-29T14:53:49.043Z,7.00
2019-03-29T14:56:19.791Z,6.42
2019-03-29T14:58:50.629Z,6.47
2019-03-29T15:01:21.361Z,6.17
2019-03-29T15:03:55.306Z,6.17
2019-03-29T15:06:26.149Z,6.20
2019-03-29T15:09:00.473Z,6.90
2019-03-29T15:11:32.815Z,6.15
2019-03-29T15:14:03.656Z,6.75
2019-03-29T15:16:34.360Z,6.83
2019-03-29T15:19:05.149Z,5.92
2019-03-29T15:21:36.010Z,5.22
2019-03-29T15:24:11.917Z,4.47
2019-03-29T15:26:54.046Z,5.10
2019-03-29T15:29:25.557Z,5.97
2019-03-29T15:31:56.305Z,5.53
2019-03-29T15:34:27.148Z,4.33
2019-03-29T15:36:57.869Z,5.28
2019-03-29T15:39:28.586Z,6.03
2019-03-29T15:41:59.678Z,5.65
2019-03-29T15:44:32.767Z,4.85
2019-03-29T15:47:03.594Z,4.17
2019-03-29T15:49:35.493Z,6.17
2019-03-29T15:52:14.332Z,5.67
2019-03-29T15:54:46.774Z,5.28
2019-03-29T15:57:21.264Z,5.33
2019-03-29T15:59:52.229Z,4.05
2019-03-29T16:02:23.074Z,4.15
2019-03-29T16:04:53.977Z,5.95
2019-03-29T16:07:25.324Z,4.10
2019-03-29T16:09:58.436Z,5.00
2019-03-29T16:12:35.538Z,5.45
2019-03-29T16:15:08.443Z,4.28
2019-03-29T16:17:39.269Z,5.70
2019-03-29T16:20:22.554Z,4.92
2019-03-29T16:22:55.968Z,5.95
2019-03-29T16:25:28.295Z,4.90
2019-03-29T16:28:02.812Z,4.87
2019-03-29T16:30:35.538Z,3.50
2019-03-29T16:33:13.558Z,4.53
2019-03-29T16:36:08.823Z,4.87
2019-03-29T16:38:48.762Z,3.17
2019-03-29T16:41:25.749Z,2.67
2019-03-29T16:43:57.835Z,2.95
2019-03-29T16:46:46.260Z,3.70
2019-03-29T16:49:20.426Z,2.98
2019-03-29T16:51:54.838Z,3.75
2019-03-29T16:54:30.520Z,2.70
2019-03-29T16:57:01.554Z,3.47
2019-03-29T16:59:34.859Z,4.00
2019-03-29T17:02:07.640Z,4.22
2019-03-29T17:04:38.680Z,2.50
2019-03-29T17:07:09.582Z,3.20
2019-03-29T17:09:45.772Z,3.98
2019-03-29T17:12:18.794Z,3.42
2019-03-29T17:14:51.848Z,4.42
2019-03-29T17:17:25.344Z,6.28
2019-03-29T17:20:00.660Z,5.62
2019-03-29T17:22:31.816Z,5.12
2019-03-29T17:25:03.175Z,4.85
2019-03-29T17:27:35.056Z,6.47
2019-03-29T17:30:07.011Z,11.90
2019-03-29T17:32:40.540Z,8.43
2019-03-29T17:35:14.620Z,5.53
2019-03-29T17:37:45.247Z,5.97
2019-03-29T17:40:15.982Z,5.65
2019-03-29T17:42:51.916Z,4.70
2019-03-29T17:45:27.146Z,5.40
2019-03-29T17:48:01.449Z,5.55
2019-03-29T17:50:33.588Z,6.45
2019-03-29T17:53:06.326Z,5.75
2019-03-29T17:55:37.400Z,5.53
2019-03-29T17:58:09.877Z,5.35
2019-03-29T18:00:41.555Z,4.78
2019-03-29T18:03:29.307Z,6.10
2019-03-29T18:06:05.414Z,5.28
2019-03-29T18:08:42.176Z,6.90
2019-03-29T18:11:20.690Z,5.37
2019-03-29T18:13:59.067Z,5.50
2019-03-29T18:16:33.146Z,5.37
2019-03-29T18:19:04.877Z,4.92
2019-03-29T18:21:40.505Z,5.45
2019-03-29T18:24:13.533Z,5.08
2019-03-29T18:26:44.675Z,4.70
2019-03-29T18:29:16.185Z,4.00
2019-03-29T18:31:52.067Z,4.95
2019-03-29T18:34:23.326Z,4.58
2019-03-29T18:37:03.204Z,4.72
2019-03-29T18:39:37.607Z,4.53
2019-03-29T18:42:11.923Z,4.00
2019-03-29T18:44:45.688Z,4.45
2019-03-29T18:47:17.693Z,5.28
2019-03-29T18:50:00.484Z,6.25
2019-03-29T18:52:33.742Z,5.03
2019-03-29T18:55:05.701Z,5.08
2019-03-29T18:57:38.017Z,5.53
2019-03-29T19:00:09.546Z,7.67
2019-03-29T19:02:47.069Z,6.92
2019-03-29T19:05:32.734Z,6.53
2019-03-29T19:08:04.651Z,6.20
2019-03-29T19:10:35.568Z,6.83
2019-03-29T19:13:09.479Z,6.65
2019-03-29T19:15:40.519Z,7.15
2019-03-29T19:18:12.188Z,7.25
2019-03-29T19:20:45.011Z,7.30
2019-03-29T19:23:18.526Z,6.25
2019-03-29T19:25:51.184Z,7.72
2019-03-29T19:28:27.379Z,8.75
2019-03-29T19:30:58.365Z,7.05
2019-03-29T19:33:38.009Z,6.92
2019-03-29T19:36:23.285Z,6.60
2019-03-29T19:38:56.574Z,7.75
2019-03-29T19:41:36.945Z,7.25
2019-03-29T19:44:08.123Z,7.30
2019-03-29T19:46:38.969Z,8.13
2019-03-29T19:49:10.397Z,7.35
2019-03-29T19:51:47.686Z,8.43
2019-03-29T19:54:20.718Z,7.50
2019-03-29T19:56:51.729Z,8.05
2019-03-29T19:59:22.841Z,6.97
2019-03-29T20:01:59.278Z,8.00
2019-03-29T20:04:30.749Z,8.05
2019-03-29T20:07:06.493Z,7.53
2019-03-29T20:09:49.134Z,7.22
2019-03-29T20:12:28.927Z,8.55
2019-03-29T20:15:01.788Z,9.80
2019-03-29T20:17:33.013Z,9.78
2019-03-29T20:20:04.806Z,10.78
2019-03-29T20:22:59.976Z,18.20
2019-03-29T20:25:45.527Z,12.78
2019-03-29T20:28:38.951Z,12.05
2019-03-29T20:31:45.823Z,10.18
2019-03-29T20:34:25.248Z,11.10
2019-03-29T20:37:15.770Z,10.20
2019-03-29T20:39:48.013Z,9.65
2019-03-29T20:42:19.272Z,10.05
2019-03-29T20:44:50.716Z,8.93
2019-03-29T20:47:25.842Z,11.48
2019-03-29T20:49:57.789Z,10.10
2019-03-29T20:52:29.129Z,9.90
2019-03-29T20:55:00.814Z,10.50
2019-03-29T20:57:33.685Z,10.80
2019-03-29T21:00:08.612Z,9.38
2019-03-29T21:02:41.833Z,11.85
2019-03-29T21:05:16.179Z,11.43
2019-03-29T21:07:54.788Z,12.28
2019-03-29T21:10:33.525Z,12.28
2019-03-29T21:13:21.878Z,11.68
2019-03-29T21:15:54.070Z,11.15
2019-03-29T21:19:05.999Z,13.65
2019-03-29T21:21:40.089Z,11.68
2019-03-29T21:25:55.676Z,11.60
2019-03-29T21:30:48.569Z,12.00
2019-03-29T21:33:19.480Z,11.97
2019-03-29T21:35:50.670Z,11.95
2019-03-29T21:38:21.640Z,13.03
2019-03-29T21:40:55.217Z,9.90
2019-03-29T21:43:27.822Z,10.85
2019-03-29T21:45:59.164Z,10.30
2019-03-29T21:48:30.458Z,9.10
2019-03-29T21:51:02.040Z,8.28
2019-03-29T21:53:34.015Z,8.98
2019-03-29T21:56:06.473Z,9.75
2019-03-29T21:58:39.026Z,10.48
2019-03-29T22:01:09.852Z,11.00
2019-03-29T22:03:44.485Z,12.47
2019-03-29T22:06:15.332Z,11.22
2019-03-29T22:08:46.258Z,11.60
2019-03-29T22:11:18.090Z,11.85
2019-03-29T22:13:48.907Z,12.90
2019-03-29T22:16:19.704Z,13.20
2019-03-29T22:18:53.714Z,12.68
2019-03-29T22:21:24.578Z,13.13
2019-03-29T22:23:55.336Z,12.53
2019-03-29T22:26:27.141Z,13.50
2019-03-29T22:28:57.883Z,13.30
2019-03-29T22:31:31.790Z,12.80
2019-03-29T22:34:02.580Z,13.65
2019-03-29T22:36:33.358Z,13.83
2019-03-29T22:39:06.446Z,14.60
2019-03-29T22:41:38.407Z,12.98
2019-03-29T22:44:09.308Z,12.03
2019-03-29T22:46:40.029Z,13.35
2019-03-29T22:49:10.848Z,13.90
2019-03-29T22:51:41.641Z,13.58
2019-03-29T22:54:12.446Z,13.60
2019-03-29T22:56:47.456Z,13.35
2019-03-29T22:59:19.240Z,13.28
2019-03-29T23:02:19.612Z,13.38
2019-03-29T23:04:57.561Z,11.88
2019-03-29T23:07:36.783Z,11.30
2019-03-29T23:10:08.723Z,12.20
2019-03-29T23:13:09.989Z,12.82
2019-03-29T23:16:37.357Z,12.55
2019-03-29T23:19:54.863Z,12.93
2019-03-29T23:25:16.408Z,10.93
2019-03-29T23:28:13.308Z,12.55
2019-03-29T23:31:09.455Z,11.05
2019-03-29T23:37:22.882Z,10.63
2019-03-29T23:40:14.126Z,10.32
2019-03-29T23:43:14.084Z,11.57
2019-03-29T23:45:44.535Z,11.45
2019-03-29T23:48:27.666Z,11.10
2019-03-29T23:51:21.381Z,11.97
2019-03-29T23:54:06.180Z,9.90
2019-03-29T23:56:45.787Z,8.83
2019-03-29T23:59:26.707Z,10.28
